14:35
Airports
History
Links
Donate
Help keep this website running!
PayPal
Bitcoin
Information on this page is community maintained and may be outdated or inaccurate and is intended for reference only or PC simulator navigating!
Always use approved charts for navigating.
Y16
Dale DelightUpdated 28-Jul-2013
Dale Delight (Y16)
Postville, Iowa, United States (52162)
4
Lat/Lng:43° 4' 43.92" N / 91° 36' 54.53" W
43.078867 / -91.615147
Elevation:1200'ft 366mMSL
Declination:E002°
ID / ICAO:Y16
FAA:Y16
Runways:1
Longest:(11-29) 708.1m 2,323ft Grass
Distance To
Airport ID:
Nearby VORs <50NM
Nearby NDBs
Nearby WeatherUpdated 03-30-17 14:15 GMT
Nearby weather at KDEH, Decorah Muni located 15.0 nautical miles from Y16
Altimeter: 29.79
Visibility: 2.0 statute miles
Wind: 10 knots (060°)
Temp: 3°c 37°f
Humidity: 100.0%

METAR: KDEH 301415Z AUTO 06010G18KT 2SM -RA BKN006 BKN009 BKN013 03/03 A2979 RMK AO2

(Powered by phpweather)
Runway 11 / 29
Dimensions:708.1 x 21.3m 2323' x 70'ft
Surface:Grass
Runway 11 [A]Runway 29 [B]
Heading:109°MH  111°TH289°MH   291°TH
Lat:
Lng:
43° 4' 48.22"N
91° 37' 9.1"W
43° 4' 39.63"N
91° 36' 39.97"W
Google Map
Nearby Airports
(U) George L Scott Muni 11.0 NM
3Y2 SW 233°
4 Monona Muni 13.9 NM
7C3 ESE 103°
(U) Decorah Muni 15.0 NM
KDEH (WX) NNW 335°
(U) Waukon Muni 15.7 NM
Y01 NNE 27°
4 Elkader 19.9 NM
I27 SE 143°
4 Hawk Field 21.0 NM
IA15 SW 229°
(R) Jirak 22.6 NM
IA49 W 281°
VFR Chart
Flight Planning at SkyVector.com